Time;durP1;ratioP1;P1;durP2;ratioP2;P2;SDS_P1;SDS_P2;PMS_P1;PMS_P2;Temp;Humidity;BMP_temperature;BMP_pressure;BME280_temperature;BME280_humidity;BME280_pressure;Samples;Min_cycle;Max_cycle;Signal;HPM_P1;HPM_P2
2023/01/11 00:00:23;;;;;;;19.58;6.03;;;;;;;-5.07;100.00;100123.28;5137884;28;20057;-63
2023/01/11 00:02:55;;;;;;;13.70;6.10;;;;;;;-5.02;100.00;100150.13;5137881;28;20047;-63
2023/01/11 00:05:22;;;;;;;13.65;5.03;;;;;;;-5.34;100.00;100152.44;5138274;28;20051;-63
2023/01/11 00:07:48;;;;;;;12.95;5.22;;;;;;;-5.48;100.00;100173.25;5137823;27;20047;-60
2023/01/11 00:10:15;;;;;;;13.73;5.90;;;;;;;-4.88;100.00;100222.88;5138227;28;20051;-64
2023/01/11 00:12:41;;;;;;;16.27;4.82;;;;;;;-5.39;100.00;100219.16;5137992;28;20184;-61
2023/01/11 00:15:11;;;;;;;5.57;2.92;;;;;;;-5.31;100.00;100215.31;5138213;28;20453;-63
2023/01/11 00:17:37;;;;;;;8.65;4.95;;;;;;;-5.28;100.00;100245.06;5137638;28;20332;-63
2023/01/11 00:20:04;;;;;;;22.85;5.72;;;;;;;-4.81;100.00;100270.91;5138221;28;20046;-62
2023/01/11 00:22:31;;;;;;;13.70;5.60;;;;;;;-4.89;100.00;100250.69;5137697;28;20089;-64
2023/01/11 00:25:00;;;;;;;11.98;5.47;;;;;;;-4.94;100.00;100247.91;5138154;28;20047;-61
2023/01/11 00:27:27;;;;;;;18.33;4.97;;;;;;;-4.49;100.00;100265.94;5137440;28;20053;-63
2023/01/11 00:29:53;;;;;;;17.17;5.93;;;;;;;-4.93;100.00;100238.84;5137519;28;20051;-61
2023/01/11 00:32:19;;;;;;;14.48;5.25;;;;;;;-5.02;100.00;100230.38;5138061;28;20107;-63
2023/01/11 00:34:45;;;;;;;12.60;5.30;;;;;;;-4.89;100.00;100248.00;5137267;28;20047;-60
2023/01/11 00:37:11;;;;;;;11.57;4.78;;;;;;;-4.76;100.00;100239.72;5137816;28;20046;-64
2023/01/11 00:39:38;;;;;;;13.40;4.60;;;;;;;-4.91;100.00;100220.69;5137405;28;20054;-60
2023/01/11 00:50:19;;;;;;;17.23;5.13;;;;;;;-5.02;100.00;100224.22;5137850;28;20120;-61
2023/01/11 00:52:45;;;;;;;13.65;5.38;;;;;;;-5.15;100.00;100221.78;5137455;28;20055;-61
2023/01/11 00:55:12;;;;;;;14.02;5.03;;;;;;;-5.37;100.00;100238.44;5137391;28;20315;-63
2023/01/11 00:57:38;;;;;;;15.60;4.53;;;;;;;-5.23;100.00;100266.56;5137286;28;20051;-61
2023/01/11 01:00:06;;;;;;;10.43;5.63;;;;;;;-4.99;100.00;100269.19;5137608;28;20048;-62
2023/01/11 01:02:32;;;;;;;16.02;4.35;;;;;;;-5.18;100.00;100275.72;5138145;28;20047;-61
2023/01/11 01:04:58;;;;;;;9.38;5.03;;;;;;;-4.87;100.00;100287.88;5139359;28;20051;-63
2023/01/11 01:07:25;;;;;;;17.75;4.65;;;;;;;-5.09;100.00;100291.19;5138087;28;20047;-61
2023/01/11 01:09:51;;;;;;;8.60;4.57;;;;;;;-5.02;100.00;100297.22;5137479;28;20134;-62
2023/01/11 01:14:59;;;;;;;11.57;5.30;;;;;;;-5.09;100.00;100283.16;5135992;28;20124;-62
2023/01/11 01:17:25;;;;;;;10.10;4.70;;;;;;;-5.01;100.00;100287.34;5137216;28;20392;-62
2023/01/11 01:19:51;;;;;;;7.63;4.05;;;;;;;-5.42;100.00;100274.94;5137962;27;20396;-62
2023/01/11 01:22:17;;;;;;;4.95;2.92;;;;;;;-5.40;100.00;100294.22;5140857;28;20051;-61
2023/01/11 01:24:44;;;;;;;12.48;5.18;;;;;;;-5.21;100.00;100307.22;5140480;28;20066;-61
2023/01/11 01:27:14;;;;;;;12.32;4.80;;;;;;;-5.06;100.00;100316.66;5141092;28;20324;-61
2023/01/11 01:29:41;;;;;;;10.10;4.97;;;;;;;-4.99;100.00;100306.66;5140637;28;20076;-64
2023/01/11 01:32:07;;;;;;;15.45;4.70;;;;;;;-5.10;100.00;100307.44;5140846;28;20422;-61
2023/01/11 01:34:36;;;;;;;12.75;4.95;;;;;;;-4.85;100.00;100301.84;5140369;28;20438;-63
2023/01/11 01:37:02;;;;;;;9.98;4.22;;;;;;;-5.18;100.00;100297.13;5140821;28;20062;-62
2023/01/11 01:39:28;;;;;;;8.88;4.07;;;;;;;-5.21;100.00;100298.41;5140408;28;20360;-62
2023/01/11 01:41:55;;;;;;;9.00;4.13;;;;;;;-5.18;100.00;100295.25;5140356;28;20053;-61
2023/01/11 01:44:54;;;;;;;12.43;4.38;;;;;;;-5.09;100.00;100301.06;5140480;28;20065;-64
2023/01/11 01:47:25;;;;;;;13.38;4.93;;;;;;;-5.16;100.00;100316.41;5140240;28;20062;-61
2023/01/11 01:49:51;;;;;;;9.05;4.97;;;;;;;-4.98;100.00;100313.59;5140396;28;20438;-64
2023/01/11 01:52:18;;;;;;;7.82;4.35;;;;;;;-5.06;100.00;100305.97;5140299;28;20497;-60
2023/01/11 01:54:48;;;;;;;10.05;4.35;;;;;;;-4.99;100.00;100304.78;5140513;28;20057;-61
2023/01/11 01:57:18;;;;;;;11.75;4.88;;;;;;;-5.10;100.00;100300.25;5140008;28;20043;-64
2023/01/11 01:59:50;;;;;;;13.90;4.90;;;;;;;-4.90;100.00;100307.06;5140429;28;20055;-62
2023/01/11 02:02:17;;;;;;;10.60;5.05;;;;;;;-4.66;100.00;100306.00;5140021;28;20043;-60
2023/01/11 02:04:46;;;;;;;11.80;4.18;;;;;;;-4.79;100.00;100309.75;5140024;28;20086;-63
2023/01/11 02:07:15;;;;;;;11.48;4.72;;;;;;;-4.86;100.00;100295.69;5140112;28;20051;-62
2023/01/11 02:09:47;;;;;;;14.10;4.75;;;;;;;-4.89;100.00;100304.19;5139998;28;20111;-64
2023/01/11 02:12:14;;;;;;;9.60;4.43;;;;;;;-4.68;100.00;100297.38;5139999;28;20051;-61
2023/01/11 02:14:42;;;;;;;14.15;4.60;;;;;;;-4.97;100.00;100278.59;5139788;28;20108;-64
2023/01/11 02:17:09;;;;;;;10.70;5.45;;;;;;;-5.13;100.00;100281.19;5140059;28;20376;-60
2023/01/11 02:19:51;;;;;;;13.52;4.30;;;;;;;-4.97;100.00;100288.47;5139745;28;20093;-61
2023/01/11 02:22:54;;;;;;;10.15;3.70;;;;;;;-5.05;100.00;100283.50;5140023;28;20092;-61
2023/01/11 02:25:55;;;;;;;14.70;4.70;;;;;;;-4.64;100.00;100277.13;5139695;28;20051;-60
2023/01/11 02:28:26;;;;;;;10.95;4.85;;;;;;;-4.86;100.00;100262.78;5139447;28;20057;-61
2023/01/11 02:30:59;;;;;;;7.05;4.20;;;;;;;-4.91;100.00;100266.16;5139549;27;20082;-60
2023/01/11 02:33:35;;;;;;;14.23;4.47;;;;;;;-4.90;100.00;100273.13;5138661;28;20054;-64
2023/01/11 02:36:10;;;;;;;8.88;4.53;;;;;;;-4.77;100.00;100282.75;5139603;28;20066;-63
2023/01/11 02:38:42;;;;;;;10.55;4.55;;;;;;;-5.04;100.00;100272.56;5139693;28;20047;-64
2023/01/11 02:41:18;;;;;;;9.07;4.05;;;;;;;-5.08;100.00;100276.75;5139345;28;20481;-64
2023/01/11 02:46:45;;;;;;;7.90;4.03;;;;;;;-5.05;100.00;100270.94;5139270;28;20054;-61
2023/01/11 02:49:18;;;;;;;12.55;4.45;;;;;;;-4.83;100.00;100275.66;5139635;28;20057;-61
2023/01/11 02:51:51;;;;;;;7.63;3.30;;;;;;;-5.03;100.00;100257.31;5139407;28;20119;-64
2023/01/11 02:54:19;;;;;;;15.45;5.85;;;;;;;-4.59;100.00;100261.19;5139346;28;20313;-63
2023/01/11 02:56:49;;;;;;;9.98;5.00;;;;;;;-4.76;100.00;100236.25;5139181;28;20324;-61
2023/01/11 02:59:20;;;;;;;10.32;4.50;;;;;;;-4.79;100.00;100223.34;5138986;28;20409;-62
2023/01/11 03:01:48;;;;;;;15.38;4.25;;;;;;;-4.69;100.00;100236.91;5139079;28;20431;-61
2023/01/11 03:04:25;;;;;;;10.75;5.45;;;;;;;-4.89;100.00;100213.25;5139014;28;20134;-63
2023/01/11 03:06:59;;;;;;;10.15;3.60;;;;;;;-4.95;100.00;100221.41;5139300;28;20050;-64
2023/01/11 03:09:32;;;;;;;;;;;;;;;-4.95;100.00;100232.09;5139223;28;20051;-60
2023/01/11 03:15:16;;;;;;;6.50;4.18;;;;;;;-4.52;100.00;100237.78;5139374;28;20443;-63
2023/01/11 03:17:51;;;;;;;11.00;4.90;;;;;;;-4.74;100.00;100226.91;5138631;28;20070;-60
2023/01/11 03:20:23;;;;;;;14.00;5.43;;;;;;;-4.60;100.00;100248.88;5139093;28;20329;-61
2023/01/11 03:23:01;;;;;;;12.52;4.63;;;;;;;-5.14;100.00;100223.41;5138567;28;20062;-64
2023/01/11 03:25:36;;;;;;;10.73;4.65;;;;;;;-4.26;100.00;100273.03;5138786;28;20051;-61
2023/01/11 03:28:14;;;;;;;9.32;4.32;;;;;;;-5.08;100.00;100206.44;5138599;28;20078;-62
2023/01/11 03:30:48;;;;;;;10.10;3.65;;;;;;;-5.02;100.00;100249.09;5138529;28;20084;-64
2023/01/11 03:33:20;;;;;;;11.50;4.80;;;;;;;-4.90;100.00;100264.28;5138809;28;20058;-60
2023/01/11 03:35:54;;;;;;;13.10;4.18;;;;;;;-4.56;100.00;100275.97;5138397;28;20043;-63
2023/01/11 03:38:24;;;;;;;;;;;;;;;-4.14;100.00;100255.03;5139263;28;20047;-62
2023/01/11 03:40:55;;;;;;;9.18;3.92;;;;;;;-4.45;100.00;100220.75;5138234;28;19924;-63
2023/01/11 03:43:23;;;;;;;8.35;4.38;;;;;;;-5.01;100.00;100205.25;5138412;27;20389;-62
2023/01/11 03:45:55;;;;;;;11.50;4.75;;;;;;;-4.19;100.00;100238.91;5138815;28;20083;-61
2023/01/11 03:48:27;;;;;;;13.40;4.63;;;;;;;-4.56;100.00;100222.44;5138232;28;20047;-61
2023/01/11 03:50:55;;;;;;;10.32;4.15;;;;;;;-4.35;100.00;100228.97;5138330;28;20089;-62
2023/01/11 03:53:24;;;;;;;9.50;4.80;;;;;;;-4.13;100.00;100207.66;5138277;28;20047;-63
2023/01/11 03:55:54;;;;;;;11.20;4.97;;;;;;;-4.34;100.00;100172.50;5138355;28;20047;-63
2023/01/11 03:58:21;;;;;;;14.98;5.03;;;;;;;-4.54;100.00;100132.81;5138031;28;20054;-64
2023/01/11 04:00:48;;;;;;;9.45;4.55;;;;;;;-4.06;100.00;100149.41;5138325;28;20061;-63
2023/01/11 04:03:15;;;;;;;11.27;4.38;;;;;;;-4.65;100.00;100088.22;5137972;28;20335;-61
2023/01/11 04:05:44;;;;;;;12.32;5.82;;;;;;;-4.39;100.00;100121.56;5138383;28;20047;-64
2023/01/11 04:08:11;;;;;;;9.75;4.78;;;;;;;-4.23;100.00;100111.09;5138173;28;20058;-64
2023/01/11 04:10:38;;;;;;;12.43;6.15;;;;;;;-3.94;100.00;100103.75;5138080;28;20047;-62
2023/01/11 04:13:04;;;;;;;31.50;6.78;;;;;;;-4.23;100.00;100066.41;5137845;28;20400;-62
2023/01/11 04:15:33;;;;;;;13.90;4.90;;;;;;;-3.95;100.00;100065.44;5137822;28;20047;-62
2023/01/11 04:18:03;;;;;;;13.93;4.75;;;;;;;-4.57;100.00;100014.75;5137838;28;20042;-60
2023/01/11 04:20:31;;;;;;;11.35;4.82;;;;;;;-4.87;100.00;100068.56;5137731;28;20328;-62
2023/01/11 04:22:57;;;;;;;12.15;5.05;;;;;;;-4.57;100.00;100129.81;5137956;28;20107;-63
2023/01/11 04:25:23;;;;;;;18.58;5.03;;;;;;;-3.93;100.00;100156.25;5137854;28;20051;-61
2023/01/11 04:27:49;;;;;;;9.68;4.93;;;;;;;-3.78;100.00;100095.69;5137873;28;20051;-62
2023/01/11 04:30:16;;;;;;;9.07;4.80;;;;;;;-3.94;100.00;100029.56;5137676;28;20047;-60
2023/01/11 04:32:42;;;;;;;9.82;5.43;;;;;;;-4.23;100.00;99978.03;5140056;28;20059;-60
2023/01/11 04:35:09;;;;;;;11.60;4.28;;;;;;;-4.04;100.00;99973.19;5139380;28;20043;-63
2023/01/11 04:37:36;;;;;;;13.88;4.93;;;;;;;-4.11;100.00;99968.00;5137800;28;20323;-63
2023/01/11 04:40:02;;;;;;;8.43;4.88;;;;;;;-3.89;100.00;99941.22;5137735;28;20105;-61
2023/01/11 04:42:28;;;;;;;15.43;5.07;;;;;;;-4.05;100.00;99932.19;5137466;28;20066;-63
2023/01/11 04:44:54;;;;;;;9.65;4.28;;;;;;;-4.18;100.00;99927.22;5137606;28;20408;-62
2023/01/11 04:47:24;;;;;;;8.50;4.13;;;;;;;-4.44;100.00;99912.69;5137087;28;20042;-61
2023/01/11 04:49:52;;;;;;;15.02;4.47;;;;;;;-4.27;100.00;99955.47;5137601;28;20328;-62
2023/01/11 04:52:19;;;;;;;7.43;3.65;;;;;;;-4.33;100.00;99962.66;5137164;28;20055;-60
2023/01/11 04:54:47;;;;;;;11.95;5.25;;;;;;;-4.26;100.00;100000.75;5136646;27;20051;-63
2023/01/11 04:57:15;;;;;;;8.57;4.15;;;;;;;-4.22;100.00;99986.88;5137025;28;20051;-61
2023/01/11 04:59:41;;;;;;;9.68;4.18;;;;;;;-4.56;100.00;99970.88;5137384;28;20080;-63
2023/01/11 05:02:08;;;;;;;16.67;4.03;;;;;;;-4.83;100.00;100003.66;5136862;28;20134;-61
2023/01/11 05:04:34;;;;;;;7.57;4.30;;;;;;;-4.33;100.00;100069.72;5137261;28;20135;-64
2023/01/11 05:07:00;;;;;;;13.00;4.60;;;;;;;-4.50;100.00;100052.84;5137054;28;20144;-60
2023/01/11 05:09:27;;;;;;;10.50;4.80;;;;;;;-4.77;100.00;100058.03;5137151;28;20055;-61
2023/01/11 05:11:53;;;;;;;12.80;4.97;;;;;;;-4.81;100.00;100110.41;5137154;28;20051;-63
2023/01/11 05:14:20;;;;;;;15.93;5.18;;;;;;;-4.95;100.00;100151.88;5137008;28;20323;-63
2023/01/11 05:16:46;;;;;;;12.98;4.72;;;;;;;-4.43;100.00;100211.44;5137101;28;20047;-62
2023/01/11 05:19:12;;;;;;;12.68;4.30;;;;;;;-4.09;100.00;100209.63;5136727;28;20146;-62
2023/01/11 05:21:40;;;;;;;19.42;4.70;;;;;;;-4.58;100.00;100174.50;5136980;28;20413;-63
2023/01/11 05:24:09;;;;;;;16.38;6.00;;;;;;;-4.22;100.00;100201.88;5136674;28;20043;-59
2023/01/11 05:26:37;;;;;;;13.25;5.53;;;;;;;-4.82;100.00;100192.50;5137280;28;20057;-57
2023/01/11 05:29:06;;;;;;;18.48;6.55;;;;;;;-4.55;100.00;100226.72;5136626;28;20328;-65
2023/01/11 05:31:33;;;;;;;9.70;5.47;;;;;;;-4.47;100.00;100255.78;5136760;28;20119;-54
2023/01/11 05:33:59;;;;;;;17.38;6.53;;;;;;;-4.60;100.00;100264.09;5136598;28;20396;-61
2023/01/11 05:36:27;;;;;;;18.55;6.30;;;;;;;-4.61;100.00;100267.81;5136482;28;20051;-63
2023/01/11 05:38:55;;;;;;;16.73;5.50;;;;;;;-4.72;100.00;100261.47;5136515;28;20062;-64
2023/01/11 05:41:22;;;;;;;13.48;6.65;;;;;;;-4.66;100.00;100281.91;5136387;28;20350;-58
2023/01/11 05:46:37;;;;;;;15.50;5.38;;;;;;;-4.64;100.00;100317.25;5136615;28;20439;-60
2023/01/11 05:49:04;;;;;;;12.65;5.63;;;;;;;-4.92;100.00;100320.69;5136870;28;20047;-60
2023/01/11 05:51:31;;;;;;;13.88;5.63;;;;;;;-4.85;100.00;100340.09;5136394;28;20051;-64
2023/01/11 05:53:58;;;;;;;8.18;4.35;;;;;;;-4.96;100.00;100343.63;5136191;28;20051;-62
2023/01/11 05:56:25;;;;;;;13.25;4.85;;;;;;;-4.74;100.00;100349.16;5136392;28;20047;-66
2023/01/11 05:58:51;;;;;;;25.10;5.78;;;;;;;-4.98;100.00;100348.38;5136293;28;20051;-62
2023/01/11 06:01:19;;;;;;;20.40;7.47;;;;;;;-4.58;100.00;100361.00;5136364;28;20062;-60
2023/01/11 06:03:46;;;;;;;16.45;5.18;;;;;;;-4.96;100.00;100354.31;5136169;28;20057;-64
2023/01/11 06:06:13;;;;;;;14.88;6.60;;;;;;;-4.93;100.00;100351.19;5137543;27;20055;-65
2023/01/11 06:08:40;;;;;;;9.65;5.15;;;;;;;-4.85;100.00;100360.69;5139552;28;20053;-54
2023/01/11 06:11:06;;;;;;;25.85;9.35;;;;;;;-4.89;100.00;100362.22;5139783;28;20057;-64
2023/01/11 06:13:32;;;;;;;19.02;7.50;;;;;;;-4.36;100.00;100361.22;5139652;28;20062;-62
2023/01/11 06:16:00;;;;;;;18.35;7.57;;;;;;;-4.86;100.00;100348.38;5140022;28;20134;-62
2023/01/11 06:18:28;;;;;;;13.35;5.55;;;;;;;-4.62;100.00;100367.88;5139631;28;20055;-62
2023/01/11 06:20:56;;;;;;;22.17;7.57;;;;;;;-4.61;100.00;100378.34;5139924;28;20086;-63
2023/01/11 06:23:23;;;;;;;16.67;7.07;;;;;;;-4.29;100.00;100375.28;5139361;28;20051;-56
2023/01/11 06:25:50;;;;;;;14.65;6.68;;;;;;;-4.53;100.00;100361.94;5138652;28;20424;-64
2023/01/11 06:28:17;;;;;;;22.95;10.65;;;;;;;-4.15;100.00;100362.41;5139564;28;20058;-64
2023/01/11 06:30:43;;;;;;;23.30;6.50;;;;;;;-4.36;100.00;100342.47;5139022;28;20087;-66
2023/01/11 06:33:09;;;;;;;9.90;6.35;;;;;;;-4.54;100.00;100322.81;5139564;28;20123;-61
2023/01/11 06:35:38;;;;;;;13.77;7.53;;;;;;;-4.48;100.00;100317.59;5139174;28;20362;-66
2023/01/11 06:38:06;;;;;;;19.40;9.32;;;;;;;-4.95;100.00;100302.44;5139599;28;20326;-63
2023/01/11 06:40:32;;;;;;;18.73;8.45;;;;;;;-4.19;100.00;100326.47;5139021;28;20412;-64
2023/01/11 06:42:58;;;;;;;16.25;6.57;;;;;;;-4.59;100.00;100316.56;5139228;28;20309;-60
2023/01/11 06:45:24;;;;;;;19.77;7.40;;;;;;;-4.66;100.00;100307.88;5138897;28;20051;-64
2023/01/11 06:47:51;;;;;;;19.40;8.90;;;;;;;-5.03;100.00;100308.97;5139266;28;20128;-60
2023/01/11 06:50:17;;;;;;;13.25;5.35;;;;;;;-5.15;100.00;100316.19;5138977;28;20049;-65
2023/01/11 06:52:43;;;;;;;12.23;5.82;;;;;;;-4.97;100.00;100332.09;5139121;28;20057;-61
2023/01/11 06:55:10;;;;;;;33.13;11.05;;;;;;;-4.92;100.00;100343.97;5138674;28;20058;-65
2023/01/11 06:57:36;;;;;;;12.95;5.88;;;;;;;-4.93;100.00;100345.00;5138533;28;20043;-62
2023/01/11 07:00:03;;;;;;;15.38;6.72;;;;;;;-4.93;100.00;100343.16;5138791;28;20051;-63
2023/01/11 07:02:29;;;;;;;16.35;7.68;;;;;;;-4.84;100.00;100351.63;5138505;28;20055;-63
2023/01/11 07:04:56;;;;;;;13.60;6.25;;;;;;;-4.91;100.00;100356.28;5139003;28;20114;-62
2023/01/11 07:07:22;;;;;;;16.90;7.55;;;;;;;-5.06;100.00;100356.75;5138891;28;20177;-62
2023/01/11 07:09:48;;;;;;;18.05;7.03;;;;;;;-4.73;100.00;100369.53;5138342;28;20416;-60
2023/01/11 07:12:15;;;;;;;20.50;8.45;;;;;;;-4.57;100.00;100362.63;5138224;28;20336;-58
2023/01/11 07:14:41;;;;;;;23.30;9.10;;;;;;;-4.81;100.00;100343.94;5138344;28;20047;-61
2023/01/11 07:17:07;;;;;;;19.02;8.15;;;;;;;-5.08;100.00;100340.94;5138083;27;20384;-64
2023/01/11 07:19:34;;;;;;;18.08;8.32;;;;;;;-4.89;100.00;100352.34;5137864;28;20054;-59
2023/01/11 07:22:00;;;;;;;14.52;5.85;;;;;;;-4.89;100.00;100359.56;5138564;28;20047;-63
2023/01/11 07:24:26;;;;;;;16.48;8.38;;;;;;;-5.00;100.00;100356.66;5138281;28;20085;-58
2023/01/11 07:26:54;;;;;;;32.67;11.40;;;;;;;-4.72;100.00;100360.47;5138465;28;20047;-63
2023/01/11 07:29:21;;;;;;;23.65;10.30;;;;;;;-4.69;100.00;100333.22;5138127;28;20464;-57
2023/01/11 07:31:48;;;;;;;27.20;9.50;;;;;;;-4.79;100.00;100333.00;5138366;28;20103;-63
2023/01/11 07:34:14;;;;;;;29.15;9.60;;;;;;;-5.09;100.00;100325.13;5138080;28;20059;-62
2023/01/11 07:36:40;;;;;;;39.47;13.07;;;;;;;-4.67;100.00;100336.47;5138349;28;20087;-59
2023/01/11 07:39:07;;;;;;;34.28;12.93;;;;;;;-4.99;100.00;100336.88;5137859;28;20107;-67
2023/01/11 07:44:17;;;;;;;;;;;;;;;-5.30;100.00;100339.88;5138535;28;20050;-63
2023/01/11 07:46:44;;;;;;;15.48;6.32;;;;;;;-4.63;100.00;100351.03;5138290;28;19980;-63
2023/01/11 07:49:10;;;;;;;12.35;5.00;;;;;;;-4.95;100.00;100336.41;5138210;28;20047;-59
2023/01/11 07:51:37;;;;;;;19.10;9.57;;;;;;;-4.82;100.00;100338.84;5137834;28;20077;-64
2023/01/11 07:54:04;;;;;;;7.00;4.28;;;;;;;-5.01;100.00;100322.09;5137951;28;20043;-56
2023/01/11 07:56:31;;;;;;;15.40;9.00;;;;;;;-4.89;100.00;100336.28;5137881;28;20079;-65
2023/01/11 07:58:57;;;;;;;12.40;3.72;;;;;;;-5.26;100.00;100333.03;5138019;28;20134;-64
2023/01/11 08:01:24;;;;;;;17.45;7.45;;;;;;;-4.78;100.00;100337.31;5137524;28;20054;-59
2023/01/11 08:03:51;;;;;;;12.40;5.63;;;;;;;-5.08;100.00;100332.09;5138171;28;20043;-60
2023/01/11 08:06:17;;;;;;;12.13;5.95;;;;;;;-4.91;100.00;100325.00;5137613;28;20412;-62
2023/01/11 08:08:44;;;;;;;13.38;5.13;;;;;;;-5.12;100.00;100334.44;5138078;28;20043;-65
2023/01/11 08:16:39;;;;;;;9.70;5.50;;;;;;;-4.71;100.00;100340.66;5137792;28;20058;-63
2023/01/11 08:19:06;;;;;;;11.93;4.97;;;;;;;-4.50;100.00;100336.53;5137577;28;20051;-63
2023/01/11 08:21:33;;;;;;;12.60;6.78;;;;;;;-4.49;100.00;100332.84;5137829;28;20077;-62
2023/01/11 08:23:59;;;;;;;13.70;6.80;;;;;;;-4.69;100.00;100333.22;5137386;28;20047;-58
2023/01/11 08:26:27;;;;;;;9.70;4.88;;;;;;;-4.94;100.00;100316.63;5137752;28;20043;-59
2023/01/11 08:28:54;;;;;;;10.60;5.57;;;;;;;-4.56;100.00;100322.25;5136758;27;20082;-60
2023/01/11 08:31:21;;;;;;;11.63;5.68;;;;;;;-4.70;100.00;100304.03;5136961;28;20137;-56
2023/01/11 08:33:48;;;;;;;13.02;6.10;;;;;;;-4.62;100.00;100298.31;5137374;28;20058;-62
2023/01/11 08:36:15;;;;;;;12.25;5.10;;;;;;;-4.81;100.00;100261.00;5137450;28;20135;-64
2023/01/11 08:38:42;;;;;;;11.38;5.40;;;;;;;-4.57;100.00;100260.94;5137456;28;20051;-61
2023/01/11 08:41:09;;;;;;;32.75;9.93;;;;;;;-4.32;100.00;100265.97;5137246;28;20134;-63
2023/01/11 08:43:36;;;;;;;9.68;5.35;;;;;;;-4.61;100.00;100228.50;5137317;28;20054;-64
2023/01/11 08:46:02;;;;;;;10.68;5.43;;;;;;;-4.90;100.00;100237.53;5136976;28;20111;-63
2023/01/11 08:48:28;;;;;;;13.48;5.22;;;;;;;-4.42;100.00;100260.44;5137279;28;20047;-62
2023/01/11 08:50:54;;;;;;;11.13;5.68;;;;;;;-4.46;100.00;100248.56;5137049;28;20134;-60
2023/01/11 08:53:21;;;;;;;9.48;4.82;;;;;;;-4.71;100.00;100233.66;5137366;28;20195;-60
2023/01/11 08:55:48;;;;;;;8.25;4.30;;;;;;;-4.87;100.00;100242.41;5136776;28;20434;-66
2023/01/11 08:58:14;;;;;;;17.70;4.30;;;;;;;-4.83;100.00;100254.25;5137380;28;20345;-61
2023/01/11 09:00:41;;;;;;;8.88;4.78;;;;;;;-5.20;100.00;100270.59;5136811;28;20055;-64
2023/01/11 09:03:07;;;;;;;10.23;5.15;;;;;;;-5.05;100.00;100302.22;5136667;28;20371;-64
2023/01/11 09:05:34;;;;;;;9.55;4.63;;;;;;;-5.04;100.00;100314.53;5136750;28;20404;-65
2023/01/11 09:08:00;;;;;;;11.55;5.18;;;;;;;-4.91;100.00;100324.19;5136674;28;20058;-60
2023/01/11 09:10:28;;;;;;;16.98;5.85;;;;;;;-5.10;100.00;100320.81;5136783;28;20043;-66
2023/01/11 09:12:55;;;;;;;9.57;4.75;;;;;;;-5.10;100.00;100334.19;5136644;28;20047;-62
2023/01/11 09:15:21;;;;;;;13.32;5.72;;;;;;;-5.06;100.00;100349.56;5136827;28;20043;-65
2023/01/11 09:17:48;;;;;;;12.45;5.32;;;;;;;-5.23;100.00;100352.09;5136781;28;20101;-65
2023/01/11 09:20:15;;;;;;;11.43;5.40;;;;;;;-5.17;100.00;100363.72;5137016;28;20057;-70
2023/01/11 09:22:45;;;;;;;7.93;4.40;;;;;;;-5.22;100.00;100355.59;5136423;28;20146;-68
2023/01/11 09:25:11;;;;;;;33.97;6.50;;;;;;;-5.03;100.00;100369.63;5136985;28;20054;-62
2023/01/11 09:27:38;;;;;;;8.25;4.60;;;;;;;-4.80;100.00;100382.19;5136444;28;20051;-61
2023/01/11 09:30:05;;;;;;;13.82;6.80;;;;;;;-5.11;100.00;100370.81;5136649;28;20313;-58
2023/01/11 09:32:31;;;;;;;12.07;4.85;;;;;;;-4.92;100.00;100357.34;5136456;28;20101;-66
2023/01/11 09:34:59;;;;;;;8.40;4.35;;;;;;;-5.08;100.00;100350.81;5136463;28;20130;-58
2023/01/11 09:37:26;;;;;;;9.15;5.63;;;;;;;-5.03;100.00;100343.75;5136473;28;20066;-61
2023/01/11 09:39:52;;;;;;;12.90;6.97;;;;;;;-4.68;100.00;100350.09;5136476;28;20059;-62
2023/01/11 09:42:38;;;;;;;10.60;5.05;;;;;;;-5.06;100.00;100336.19;5139478;27;20055;-61
2023/01/11 09:45:13;;;;;;;13.73;5.50;;;;;;;-4.99;100.00;100334.19;5140138;28;20050;-63
2023/01/11 09:47:44;;;;;;;13.15;5.07;;;;;;;-4.77;100.00;100328.22;5140207;28;20043;-64
2023/01/11 09:50:15;;;;;;;13.27;6.20;;;;;;;-4.36;100.00;100327.22;5139629;28;20142;-66
2023/01/11 09:52:44;;;;;;;16.48;5.53;;;;;;;-4.69;100.00;100297.63;5140156;28;20127;-58
2023/01/11 09:55:18;;;;;;;18.75;7.05;;;;;;;-4.24;100.00;100295.03;5139819;28;20051;-62
2023/01/11 09:57:59;;;;;;;45.78;6.30;;;;;;;-4.42;100.00;100274.63;5139663;28;20142;-61
2023/01/11 10:00:35;;;;;;;16.25;5.95;;;;;;;-4.99;100.00;100253.16;5140289;28;20137;-65
2023/01/11 10:03:29;;;;;;;13.82;5.63;;;;;;;-4.92;100.00;100266.41;5139519;28;20062;-62
2023/01/11 10:06:09;;;;;;;15.50;6.13;;;;;;;-4.75;100.00;100269.97;5126434;28;20077;-64
2023/01/11 10:08:52;;;;;;;15.77;6.95;;;;;;;-4.19;100.00;100270.22;5139508;28;20057;-64
2023/01/11 10:11:30;;;;;;;10.75;4.95;;;;;;;-4.93;100.00;100230.81;5139698;28;20047;-63
2023/01/11 10:14:03;;;;;;;15.32;6.15;;;;;;;-4.43;100.00;100259.63;5139526;28;20075;-63
2023/01/11 10:16:40;;;;;;;13.65;6.22;;;;;;;-4.52;100.00;100239.63;5139485;28;20054;-64
2023/01/11 10:19:15;;;;;;;15.68;5.30;;;;;;;-4.57;100.00;100215.44;5139858;28;20055;-61
2023/01/11 10:21:48;;;;;;;10.70;5.25;;;;;;;-4.54;100.00;100199.72;5139212;28;20055;-65
2023/01/11 10:24:21;;;;;;;14.18;5.75;;;;;;;-4.53;100.00;100187.16;5139377;28;20058;-65
2023/01/11 10:26:50;;;;;;;12.93;5.50;;;;;;;-4.62;100.00;100178.72;5139470;28;20146;-65
2023/01/11 10:29:34;;;;;;;12.43;5.40;;;;;;;-4.30;100.00;100199.59;5139193;28;20424;-63
2023/01/11 10:32:33;;;;;;;18.38;6.78;;;;;;;-4.41;100.00;100198.59;5139226;28;20055;-61
2023/01/11 10:35:24;;;;;;;13.20;5.45;;;;;;;-4.53;100.00;100187.97;5139256;28;20058;-67
2023/01/11 10:38:20;;;;;;;13.98;5.97;;;;;;;-4.47;100.00;100177.34;5139131;28;20086;-60
2023/01/11 10:41:05;;;;;;;15.88;5.53;;;;;;;-3.81;100.00;100165.84;5139461;28;20073;-62
2023/01/11 10:43:36;;;;;;;19.73;6.95;;;;;;;-4.18;100.00;100074.50;5139088;28;20058;-59
2023/01/11 10:46:08;;;;;;;11.63;6.15;;;;;;;-3.90;100.00;100068.22;5139617;28;20376;-60
2023/01/11 10:48:38;;;;;;;15.20;6.00;;;;;;;-4.19;100.00;99999.78;5138992;28;20047;-62
2023/01/11 10:51:12;;;;;;;16.88;6.40;;;;;;;-4.31;100.00;99989.97;5138800;28;20138;-60
2023/01/11 10:53:43;;;;;;;11.57;6.10;;;;;;;-4.16;100.00;99985.91;5137713;27;20366;-61
2023/01/11 10:56:20;;;;;;;37.72;14.07;;;;;;;-4.03;100.00;99969.47;5138664;28;20413;-59
2023/01/11 10:59:06;;;;;;;11.73;5.43;;;;;;;-4.65;100.00;99950.94;5139076;28;20073;-63
2023/01/11 11:01:53;;;;;;;19.70;6.57;;;;;;;-4.49;100.00;100022.38;5138560;28;20065;-60
2023/01/11 11:04:39;;;;;;;10.32;4.95;;;;;;;-4.89;100.00;100028.69;5139253;28;20054;-60
2023/01/11 11:07:13;;;;;;;14.05;5.72;;;;;;;-4.82;100.00;100092.75;5138777;28;20054;-63
2023/01/11 11:09:48;;;;;;;11.23;5.43;;;;;;;-4.77;100.00;100124.91;5138735;28;20047;-63
2023/01/11 11:12:22;;;;;;;19.95;7.65;;;;;;;-4.31;100.00;100168.53;5138610;28;20062;-64
2023/01/11 11:14:56;;;;;;;14.38;6.18;;;;;;;-4.60;100.00;100149.03;5138437;28;20062;-65
2023/01/11 11:17:23;;;;;;;;;;;;;;;-4.24;100.00;100168.38;5139346;28;20062;-63
2023/01/11 11:19:51;;;;;;;25.17;6.47;;;;;;;-4.46;100.00;100131.63;5138625;28;19987;-64
2023/01/11 11:22:18;;;;;;;16.02;6.50;;;;;;;-4.71;100.00;100128.50;5138920;28;20138;-61
2023/01/11 11:24:49;;;;;;;11.18;5.68;;;;;;;-4.65;100.00;100162.31;5138368;28;20087;-62
2023/01/11 11:27:23;;;;;;;12.25;6.35;;;;;;;-3.87;100.00;100172.19;5138486;28;20385;-63
2023/01/11 11:29:52;;;;;;;22.42;6.10;;;;;;;-4.44;100.00;100129.50;5138274;28;20059;-61
2023/01/11 11:32:23;;;;;;;9.52;5.07;;;;;;;-4.62;100.00;100102.97;5138280;28;20083;-65
2023/01/11 11:34:51;;;;;;;13.65;7.28;;;;;;;-4.19;100.00;100128.31;5138551;28;20327;-63
2023/01/11 11:37:30;;;;;;;13.88;7.63;;;;;;;-4.18;100.00;100084.41;5138280;28;20069;-64
2023/01/11 11:39:56;;;;;;;11.30;6.05;;;;;;;-3.91;100.00;100045.13;5138519;28;20082;-63
2023/01/11 11:42:24;;;;;;;16.67;6.35;;;;;;;-4.05;100.00;99985.78;5137947;28;20062;-63
2023/01/11 11:45:15;;;;;;;17.27;6.97;;;;;;;-3.86;100.00;99988.97;5138428;28;20126;-62
2023/01/11 11:47:43;;;;;;;18.15;6.53;;;;;;;-3.82;100.00;99925.78;5138027;28;20228;-62
2023/01/11 11:50:24;;;;;;;21.15;7.28;;;;;;;-4.08;100.00;99849.69;5138060;28;20051;-61